Time;durP1;ratioP1;P1;durP2;ratioP2;P2;SDS_P1;SDS_P2;PMS_P1;PMS_P2;Temp;Humidity;BMP_temperature;BMP_pressure;BME280_temperature;BME280_humidity;BME280_pressure;Samples;Min_cycle;Max_cycle;Signal;HPM_P1;HPM_P2
2022/11/26 00:02:22;;;;;;;15.43;5.37;;;;;;;;;;5017930;28;20053;-70
2022/11/26 00:04:49;;;;;;;16.33;5.10;;;;;;;;;;5022338;28;20038;-70
2022/11/26 00:07:17;;;;;;;16.60;5.25;;;;;;;;;;5024698;28;20057;-71
2022/11/26 00:09:43;;;;;;;18.83;4.35;;;;;;;;;;5029654;28;20191;-71
2022/11/26 00:12:20;;;;;;;15.60;4.45;;;;;;;;;;5031617;28;20063;-71
2022/11/26 00:14:47;;;;;;;14.38;3.58;;;;;;;;;;5034914;28;20045;-71
2022/11/26 00:17:14;;;;;;;13.98;3.90;;;;;;;;;;5035274;28;20056;-71
2022/11/26 00:19:42;;;;;;;13.63;3.05;;;;;;;;;;5035449;28;20048;-71
2022/11/26 00:22:21;;;;;;;14.38;3.70;;;;;;;;;;5035463;28;20507;-71
2022/11/26 00:24:48;;;;;;;17.55;3.25;;;;;;;;;;5035196;28;20067;-71
2022/11/26 00:27:15;;;;;;;11.23;2.83;;;;;;;;;;5035426;28;20053;-70
2022/11/26 00:29:41;;;;;;;16.02;3.50;;;;;;;;;;5035122;28;20485;-71
2022/11/26 00:32:13;;;;;;;14.52;3.00;;;;;;;;;;5035305;28;20058;-70
2022/11/26 00:34:40;;;;;;;14.63;3.00;;;;;;;;;;5035813;28;20072;-71
2022/11/26 00:37:39;;;;;;;13.88;3.13;;;;;;;;;;5035333;28;20410;-71
2022/11/26 00:40:06;;;;;;;12.00;2.95;;;;;;;;;;5033680;28;20145;-71
2022/11/26 00:42:33;;;;;;;12.32;2.70;;;;;;;;;;5035056;28;20092;-71
2022/11/26 00:44:59;;;;;;;15.98;2.95;;;;;;;;;;5034230;28;20171;-71
2022/11/26 00:47:26;;;;;;;16.48;3.38;;;;;;;;;;5035188;28;20059;-71
2022/11/26 00:49:53;;;;;;;12.27;2.90;;;;;;;;;;5033682;28;20060;-71
2022/11/26 00:52:38;;;;;;;15.40;4.00;;;;;;;;;;5035148;28;20060;-71
2022/11/26 00:55:14;;;;;;;20.33;4.40;;;;;;;;;;5034893;28;20072;-70
2022/11/26 00:57:41;;;;;;;14.05;4.05;;;;;;;;;;5033507;28;20473;-71
2022/11/26 01:00:18;;;;;;;17.58;3.83;;;;;;;;;;5035011;28;20041;-71
2022/11/26 01:02:47;;;;;;;15.23;3.30;;;;;;;;;;5034903;28;20412;-71
2022/11/26 01:05:14;;;;;;;16.67;4.60;;;;;;;;;;5034958;28;20045;-71
2022/11/26 01:07:41;;;;;;;15.70;4.22;;;;;;;;;;5034761;28;20045;-71
2022/11/26 01:10:18;;;;;;;16.45;4.05;;;;;;;;;;5034800;28;20045;-71
2022/11/26 01:12:48;;;;;;;14.27;3.35;;;;;;;;;;5030951;28;20046;-71
2022/11/26 01:15:16;;;;;;;16.23;3.53;;;;;;;;;;5014779;28;20054;-71
2022/11/26 01:17:43;;;;;;;;;;;;;;;;;;5031430;28;20049;-71
2022/11/26 01:20:19;;;;;;;20.52;3.25;;;;;;;;;;5034299;28;20372;-71
2022/11/26 01:22:51;;;;;;;14.80;3.00;;;;;;;;;;5033335;28;20092;-71
2022/11/26 01:25:17;;;;;;;12.75;3.92;;;;;;;;;;5033160;28;20048;-71
2022/11/26 01:27:44;;;;;;;21.50;3.95;;;;;;;;;;5034286;28;20128;-71
2022/11/26 01:30:13;;;;;;;17.33;3.58;;;;;;;;;;5034430;28;20390;-71
2022/11/26 01:32:39;;;;;;;25.23;4.43;;;;;;;;;;5034345;28;20049;-71
2022/11/26 01:35:06;;;;;;;16.08;4.20;;;;;;;;;;5034217;28;20050;-71
2022/11/26 01:37:32;;;;;;;21.85;3.80;;;;;;;;;;5034267;28;20083;-71
2022/11/26 01:39:59;;;;;;;19.35;4.20;;;;;;;;;;5033861;28;20061;-70
2022/11/26 01:42:45;;;;;;;18.77;4.28;;;;;;;;;;5034251;28;20045;-70
2022/11/26 01:45:17;;;;;;;12.95;3.50;;;;;;;;;;5032574;28;20056;-71
2022/11/26 01:47:47;;;;;;;16.27;3.60;;;;;;;;;;5032518;28;20515;-70
2022/11/26 01:50:32;;;;;;;17.60;3.63;;;;;;;;;;5032538;28;20060;-70
2022/11/26 01:53:02;;;;;;;20.58;3.63;;;;;;;;;;5032536;28;20077;-70
2022/11/26 01:55:34;;;;;;;15.30;3.20;;;;;;;;;;5032604;28;20056;-71
2022/11/26 01:58:02;;;;;;;19.45;3.75;;;;;;;;;;5033677;28;20049;-71
2022/11/26 02:00:29;;;;;;;19.38;3.85;;;;;;;;;;5021510;28;20130;-71
2022/11/26 02:02:55;;;;;;;20.05;3.20;;;;;;;;;;5032190;28;20045;-71
2022/11/26 02:05:23;;;;;;;12.63;3.10;;;;;;;;;;5033463;28;20057;-71
2022/11/26 02:07:51;;;;;;;12.88;2.85;;;;;;;;;;5033315;28;20519;-71
2022/11/26 02:10:17;;;;;;;18.90;3.50;;;;;;;;;;5033296;28;20053;-70
2022/11/26 02:12:44;;;;;;;12.52;3.53;;;;;;;;;;5033459;28;20053;-71
2022/11/26 02:15:11;;;;;;;14.07;3.03;;;;;;;;;;5033416;28;20049;-70
2022/11/26 02:17:46;;;;;;;18.55;3.17;;;;;;;;;;5033272;28;20060;-70
2022/11/26 02:20:31;;;;;;;19.88;3.90;;;;;;;;;;5033326;28;20584;-70
2022/11/26 02:22:57;;;;;;;13.45;2.88;;;;;;;;;;5033155;28;20048;-70
2022/11/26 02:25:43;;;;;;;18.10;3.83;;;;;;;;;;5033102;28;20052;-70
2022/11/26 02:28:15;;;;;;;18.15;3.50;;;;;;;;;;5019228;28;20052;-70
2022/11/26 02:30:44;;;;;;;17.35;3.10;;;;;;;;;;5032112;28;20060;-70
2022/11/26 02:33:15;;;;;;;18.92;3.58;;;;;;;;;;5033035;28;20049;-71
2022/11/26 02:35:44;;;;;;;12.77;3.38;;;;;;;;;;5032441;28;20051;-70
2022/11/26 02:38:24;;;;;;;19.95;3.58;;;;;;;;;;5032892;28;20132;-70
2022/11/26 02:40:51;;;;;;;27.40;3.55;;;;;;;;;;5033202;28;20037;-70
2022/11/26 02:43:18;;;;;;;18.02;3.20;;;;;;;;;;5032855;28;20048;-71
2022/11/26 02:45:46;;;;;;;17.98;3.30;;;;;;;;;;5032748;28;20564;-71
2022/11/26 02:48:12;;;;;;;;;;;;;;;;;;5021701;28;20050;-71
2022/11/26 02:50:44;;;;;;;17.60;3.50;;;;;;;;;;5030461;28;19921;-71
2022/11/26 02:53:13;;;;;;;14.75;3.35;;;;;;;;;;5032551;28;20124;-71
2022/11/26 02:55:42;;;;;;;17.85;3.47;;;;;;;;;;5032802;28;20128;-70
2022/11/26 02:58:08;;;;;;;14.55;3.33;;;;;;;;;;5032647;28;20057;-70
2022/11/26 03:00:35;;;;;;;18.25;2.80;;;;;;;;;;5032374;28;20501;-71
2022/11/26 03:03:34;;;;;;;14.98;2.85;;;;;;;;;;5032428;28;20056;-70
2022/11/26 03:06:03;;;;;;;16.40;3.00;;;;;;;;;;5030934;28;20061;-71
2022/11/26 03:08:31;;;;;;;12.90;2.88;;;;;;;;;;5032258;28;20050;-71
2022/11/26 03:10:57;;;;;;;18.77;3.63;;;;;;;;;;5032469;28;20042;-71
2022/11/26 03:13:23;;;;;;;14.50;3.50;;;;;;;;;;5031171;28;20045;-71
2022/11/26 03:15:51;;;;;;;;;;;;;;;;;;5032773;28;20125;-71
2022/11/26 03:18:18;;;;;;;19.90;3.20;;;;;;;;;;5032132;28;20349;-71
2022/11/26 03:20:44;;;;;;;19.48;3.55;;;;;;;;;;5032145;28;20060;-70
2022/11/26 03:23:10;;;;;;;20.67;3.83;;;;;;;;;;5031959;28;20061;-70
2022/11/26 03:25:37;;;;;;;15.65;3.65;;;;;;;;;;5032332;28;20061;-70
2022/11/26 03:28:03;;;;;;;20.00;3.45;;;;;;;;;;5030700;28;20493;-70
2022/11/26 03:30:30;;;;;;;18.13;2.90;;;;;;;;;;5031923;28;20128;-70
2022/11/26 03:32:56;;;;;;;21.33;3.25;;;;;;;;;;5031907;28;20504;-70
2022/11/26 03:35:23;;;;;;;17.83;3.45;;;;;;;;;;5031877;28;20057;-70
2022/11/26 03:37:50;;;;;;;16.73;3.08;;;;;;;;;;5031775;28;20049;-70
2022/11/26 03:40:16;;;;;;;18.73;2.83;;;;;;;;;;5031679;28;20141;-70
2022/11/26 03:42:43;;;;;;;17.77;3.65;;;;;;;;;;5032140;28;20433;-70
2022/11/26 03:45:10;;;;;;;15.10;2.42;;;;;;;;;;5031935;28;20056;-71
2022/11/26 03:47:37;;;;;;;14.63;2.75;;;;;;;;;;5029871;28;20064;-71
2022/11/26 03:50:05;;;;;;;21.80;3.08;;;;;;;;;;5028509;28;20058;-70
2022/11/26 03:52:32;;;;;;;15.70;3.17;;;;;;;;;;5029143;28;20049;-70
2022/11/26 03:54:58;;;;;;;25.00;3.35;;;;;;;;;;5031790;28;20103;-70
2022/11/26 03:57:25;;;;;;;14.98;3.05;;;;;;;;;;5031641;28;20091;-70
2022/11/26 03:59:52;;;;;;;18.63;3.17;;;;;;;;;;5030367;28;20046;-71
2022/11/26 04:02:19;;;;;;;17.17;3.30;;;;;;;;;;5031404;28;20052;-71
2022/11/26 04:04:46;;;;;;;15.38;2.60;;;;;;;;;;5030232;28;20055;-71
2022/11/26 04:07:13;;;;;;;;;;;;;;;;;;5031936;28;20133;-70
2022/11/26 04:09:40;;;;;;;18.75;3.58;;;;;;;;;;5031833;28;20350;-70
2022/11/26 04:12:06;;;;;;;22.70;2.67;;;;;;;;;;5031715;28;20053;-70
2022/11/26 04:14:33;;;;;;;15.85;3.15;;;;;;;;;;5031430;28;20493;-70
2022/11/26 04:16:59;;;;;;;12.98;2.95;;;;;;;;;;5031422;28;20058;-70
2022/11/26 04:19:26;;;;;;;14.57;2.92;;;;;;;;;;5031297;28;20049;-70
2022/11/26 04:21:53;;;;;;;24.00;4.20;;;;;;;;;;5031697;28;20595;-70
2022/11/26 04:24:20;;;;;;;16.77;2.97;;;;;;;;;;5031477;28;20053;-70
2022/11/26 04:26:46;;;;;;;18.52;3.25;;;;;;;;;;5031412;28;20053;-70
2022/11/26 04:29:12;;;;;;;17.35;2.95;;;;;;;;;;5031707;28;20075;-71
2022/11/26 04:31:43;;;;;;;16.85;2.70;;;;;;;;;;5031209;28;20087;-70
2022/11/26 04:34:10;;;;;;;23.30;3.17;;;;;;;;;;5031628;28;20054;-70
2022/11/26 04:36:38;;;;;;;14.77;2.65;;;;;;;;;;5030217;28;20374;-70
2022/11/26 04:39:04;;;;;;;16.77;2.75;;;;;;;;;;5030106;28;20053;-70
2022/11/26 04:41:31;;;;;;;14.43;2.95;;;;;;;;;;5030267;28;20048;-70
2022/11/26 04:43:57;;;;;;;18.15;3.10;;;;;;;;;;5030215;28;20057;-70
2022/11/26 04:46:27;;;;;;;20.25;3.25;;;;;;;;;;5031081;28;20053;-71
2022/11/26 04:48:56;;;;;;;27.50;3.45;;;;;;;;;;5031053;28;20049;-71
2022/11/26 04:51:22;;;;;;;15.63;2.65;;;;;;;;;;5031440;28;20053;-70
2022/11/26 04:53:49;;;;;;;17.85;3.45;;;;;;;;;;5029926;28;20460;-71
2022/11/26 04:56:22;;;;;;;19.63;3.28;;;;;;;;;;5031421;28;20060;-70
2022/11/26 04:58:48;;;;;;;16.38;3.22;;;;;;;;;;5031129;28;20056;-71
2022/11/26 05:01:15;;;;;;;22.50;3.58;;;;;;;;;;5035038;28;20041;-70
2022/11/26 05:03:42;;;;;;;18.50;2.90;;;;;;;;;;5034493;28;20046;-70
2022/11/26 05:06:09;;;;;;;18.35;3.63;;;;;;;;;;5034516;28;20059;-70
2022/11/26 05:08:36;;;;;;;18.17;3.28;;;;;;;;;;5034649;28;20531;-70
2022/11/26 05:11:02;;;;;;;19.27;2.72;;;;;;;;;;5034484;28;20045;-70
2022/11/26 05:13:28;;;;;;;23.58;3.15;;;;;;;;;;5034966;28;20049;-70
2022/11/26 05:15:56;;;;;;;14.43;2.67;;;;;;;;;;5035871;28;20055;-70
2022/11/26 05:18:22;;;;;;;17.58;2.88;;;;;;;;;;5034347;28;20046;-71
2022/11/26 05:20:50;;;;;;;13.50;3.33;;;;;;;;;;5034290;28;20045;-70
2022/11/26 05:23:16;;;;;;;15.32;2.92;;;;;;;;;;5034274;28;20052;-70
2022/11/26 05:25:43;;;;;;;25.02;3.65;;;;;;;;;;5033598;28;20099;-70
2022/11/26 05:28:10;;;;;;;16.42;2.85;;;;;;;;;;5034197;28;20077;-70
2022/11/26 05:30:37;;;;;;;17.60;3.38;;;;;;;;;;5034444;28;20049;-71
2022/11/26 05:33:03;;;;;;;16.25;3.33;;;;;;;;;;5032909;28;20050;-71
2022/11/26 05:35:30;;;;;;;19.23;2.60;;;;;;;;;;5034275;28;20053;-70
2022/11/26 05:37:57;;;;;;;22.40;3.10;;;;;;;;;;5034071;28;20255;-70
2022/11/26 05:40:26;;;;;;;18.40;2.80;;;;;;;;;;5034357;28;20489;-71
2022/11/26 05:42:52;;;;;;;14.70;2.92;;;;;;;;;;5032918;28;20056;-70
2022/11/26 05:45:18;;;;;;;17.88;2.75;;;;;;;;;;5034143;28;20424;-70
2022/11/26 05:47:46;;;;;;;19.08;2.45;;;;;;;;;;5034074;28;20148;-70
2022/11/26 05:50:13;;;;;;;15.02;2.60;;;;;;;;;;5033807;28;20055;-70
2022/11/26 05:52:40;;;;;;;17.13;2.70;;;;;;;;;;5032948;28;20053;-71
2022/11/26 05:55:08;;;;;;;17.50;3.10;;;;;;;;;;5033598;28;20061;-71
2022/11/26 05:57:36;;;;;;;23.95;3.83;;;;;;;;;;5033923;28;20393;-70
2022/11/26 06:00:03;;;;;;;19.77;3.25;;;;;;;;;;5031900;28;20511;-70
2022/11/26 06:02:30;;;;;;;13.82;2.97;;;;;;;;;;5033675;28;20042;-71
2022/11/26 06:04:56;;;;;;;25.42;3.28;;;;;;;;;;5033626;28;20083;-71
2022/11/26 06:07:23;;;;;;;18.13;2.30;;;;;;;;;;5033602;28;20055;-71
2022/11/26 06:09:49;;;;;;;20.98;3.38;;;;;;;;;;5033503;28;20049;-71
2022/11/26 06:12:16;;;;;;;13.68;3.08;;;;;;;;;;5032528;28;20531;-70
2022/11/26 06:14:43;;;;;;;17.92;3.03;;;;;;;;;;5033792;28;20045;-71
2022/11/26 06:17:10;;;;;;;17.50;2.75;;;;;;;;;;5032329;28;20056;-70
2022/11/26 06:19:37;;;;;;;20.80;3.17;;;;;;;;;;5033629;28;20433;-71
2022/11/26 06:22:04;;;;;;;16.70;3.17;;;;;;;;;;5033299;28;20614;-71
2022/11/26 06:24:30;;;;;;;21.63;2.63;;;;;;;;;;5033108;28;20386;-71
2022/11/26 06:26:57;;;;;;;19.08;3.50;;;;;;;;;;5033311;28;20043;-71
2022/11/26 06:29:24;;;;;;;18.33;2.80;;;;;;;;;;5033326;28;20049;-71
2022/11/26 06:31:54;;;;;;;19.27;3.45;;;;;;;;;;5033412;28;20096;-71
2022/11/26 06:34:21;;;;;;;21.45;2.97;;;;;;;;;;5033102;28;20052;-71
2022/11/26 06:36:47;;;;;;;21.23;3.13;;;;;;;;;;5032895;28;20045;-71
2022/11/26 06:39:13;;;;;;;16.67;2.97;;;;;;;;;;5032730;28;20894;-70
2022/11/26 06:41:41;;;;;;;17.58;3.47;;;;;;;;;;5032874;28;20041;-71
2022/11/26 06:44:08;;;;;;;16.93;3.40;;;;;;;;;;5032838;28;20049;-71
2022/11/26 06:46:34;;;;;;;18.95;4.70;;;;;;;;;;5032834;28;20056;-70
2022/11/26 06:49:02;;;;;;;22.67;5.22;;;;;;;;;;5032770;28;20064;-70
2022/11/26 06:51:31;;;;;;;19.92;6.80;;;;;;;;;;5031662;28;20060;-70
2022/11/26 06:53:58;;;;;;;24.27;5.57;;;;;;;;;;5032839;28;20067;-70
2022/11/26 06:56:25;;;;;;;17.05;3.67;;;;;;;;;;5032737;28;20053;-70
2022/11/26 06:58:53;;;;;;;16.80;3.42;;;;;;;;;;5032571;28;20041;-70
2022/11/26 07:01:22;;;;;;;19.10;3.60;;;;;;;;;;5031533;28;20049;-70
2022/11/26 07:03:49;;;;;;;15.85;3.35;;;;;;;;;;5031106;28;20057;-70
2022/11/26 07:06:23;;;;;;;15.10;2.95;;;;;;;;;;5032760;28;20046;-70
2022/11/26 07:08:51;;;;;;;16.55;2.85;;;;;;;;;;5032626;28;20107;-70
2022/11/26 07:11:18;;;;;;;21.80;3.28;;;;;;;;;;5032403;28;20052;-70
2022/11/26 07:13:45;;;;;;;19.15;3.15;;;;;;;;;;5032393;28;20428;-71
2022/11/26 07:16:11;;;;;;;16.00;2.88;;;;;;;;;;5032096;28;20053;-71
2022/11/26 07:18:39;;;;;;;15.98;3.22;;;;;;;;;;5032579;28;20076;-70
2022/11/26 07:21:07;;;;;;;12.68;2.35;;;;;;;;;;5032342;28;20051;-71
2022/11/26 07:23:34;;;;;;;18.30;2.55;;;;;;;;;;5030930;28;20049;-70
2022/11/26 07:26:01;;;;;;;20.65;3.47;;;;;;;;;;5032281;28;20049;-71
2022/11/26 07:28:28;;;;;;;21.48;2.88;;;;;;;;;;5032042;28;20060;-71
2022/11/26 07:30:58;;;;;;;21.38;3.17;;;;;;;;;;5032125;28;20045;-71
2022/11/26 07:33:25;;;;;;;19.73;2.88;;;;;;;;;;5032205;28;20107;-70
2022/11/26 07:35:52;;;;;;;18.50;2.85;;;;;;;;;;5030805;28;20052;-69
2022/11/26 07:38:19;;;;;;;17.98;3.13;;;;;;;;;;5031612;28;20053;-70
2022/11/26 07:40:46;;;;;;;14.90;3.25;;;;;;;;;;5031878;28;20058;-70
2022/11/26 07:43:13;;;;;;;18.20;2.67;;;;;;;;;;5031764;28;20044;-69
2022/11/26 07:45:40;;;;;;;18.20;2.78;;;;;;;;;;5031718;28;20060;-69
2022/11/26 07:48:07;;;;;;;23.67;3.65;;;;;;;;;;5030809;28;20449;-70
2022/11/26 07:50:44;;;;;;;21.13;2.97;;;;;;;;;;5028404;28;20053;-71
2022/11/26 07:53:12;;;;;;;20.83;2.75;;;;;;;;;;5010759;28;20601;-71
2022/11/26 07:55:39;;;;;;;17.60;3.05;;;;;;;;;;5010654;28;20544;-71
2022/11/26 07:58:05;;;;;;;15.77;3.00;;;;;;;;;;5011385;28;20165;-70
2022/11/26 08:00:32;;;;;;;20.83;3.40;;;;;;;;;;5028796;28;20068;-71
2022/11/26 08:02:58;;;;;;;18.70;3.67;;;;;;;;;;5031462;28;20137;-71
2022/11/26 08:05:25;;;;;;;17.98;3.35;;;;;;;;;;5021192;28;20082;-71
2022/11/26 08:07:51;;;;;;;17.05;2.80;;;;;;;;;;5024280;28;20049;-71
2022/11/26 08:10:21;;;;;;;15.25;3.60;;;;;;;;;;5030922;28;20061;-72
2022/11/26 08:12:47;;;;;;;16.52;2.97;;;;;;;;;;5030901;28;20141;-74
2022/11/26 08:15:13;;;;;;;14.85;2.75;;;;;;;;;;5030865;28;20104;-75
2022/11/26 08:17:40;;;;;;;18.77;3.13;;;;;;;;;;5031029;28;20107;-73
2022/11/26 08:20:07;;;;;;;21.98;3.10;;;;;;;;;;5011874;28;20052;-73
2022/11/26 08:22:34;;;;;;;18.85;3.38;;;;;;;;;;5010240;28;20382;-73
2022/11/26 08:25:01;;;;;;;18.45;3.80;;;;;;;;;;5009947;28;20078;-73
2022/11/26 08:27:30;;;;;;;19.60;3.25;;;;;;;;;;5010826;28;20049;-72
2022/11/26 08:29:57;;;;;;;17.88;3.15;;;;;;;;;;5011052;28;20089;-73
2022/11/26 08:32:25;;;;;;;14.38;3.35;;;;;;;;;;5011068;28;20526;-75
2022/11/26 08:34:51;;;;;;;13.95;3.15;;;;;;;;;;5013007;28;20073;-76
2022/11/26 08:37:17;;;;;;;23.40;4.68;;;;;;;;;;5028698;28;20144;-72
2022/11/26 08:39:44;;;;;;;14.88;3.35;;;;;;;;;;5033288;28;20061;-71
2022/11/26 08:42:11;;;;;;;15.13;3.40;;;;;;;;;;5034544;28;20515;-75
2022/11/26 08:44:37;;;;;;;17.00;3.67;;;;;;;;;;5034560;28;20045;-73
2022/11/26 08:47:04;;;;;;;18.05;3.30;;;;;;;;;;5034376;28;20132;-73
2022/11/26 08:49:30;;;;;;;14.52;2.80;;;;;;;;;;5034387;28;20057;-72
2022/11/26 08:51:57;;;;;;;16.60;3.13;;;;;;;;;;5034284;28;20575;-71
2022/11/26 08:54:24;;;;;;;17.05;3.22;;;;;;;;;;5034400;28;20056;-73
2022/11/26 08:56:51;;;;;;;15.75;3.00;;;;;;;;;;5034437;28;20084;-74
2022/11/26 08:59:19;;;;;;;16.30;3.00;;;;;;;;;;5029358;28;20125;-73
2022/11/26 09:01:45;;;;;;;14.00;2.85;;;;;;;;;;5014594;28;20569;-73
2022/11/26 09:04:12;;;;;;;12.43;2.30;;;;;;;;;;5017916;28;20046;-73
2022/11/26 09:06:40;;;;;;;16.42;2.80;;;;;;;;;;5014030;28;20134;-73
2022/11/26 09:09:13;;;;;;;14.43;2.35;;;;;;;;;;5012536;28;20581;-73
2022/11/26 09:11:43;;;;;;;16.58;2.80;;;;;;;;;;5013034;28;20594;-73
2022/11/26 09:14:10;;;;;;;18.15;3.00;;;;;;;;;;5015930;28;20565;-70
2022/11/26 09:16:38;;;;;;;17.58;3.10;;;;;;;;;;5029499;28;20060;-73
2022/11/26 09:19:05;;;;;;;18.40;2.78;;;;;;;;;;5032547;28;20045;-72
2022/11/26 09:21:33;;;;;;;13.55;2.45;;;;;;;;;;5012269;28;20052;-72
2022/11/26 09:24:00;;;;;;;19.02;2.97;;;;;;;;;;5013430;28;20501;-73
2022/11/26 09:26:28;;;;;;;14.27;2.80;;;;;;;;;;5013829;28;20050;-72
2022/11/26 09:28:55;;;;;;;15.25;3.03;;;;;;;;;;5019115;28;20050;-72
2022/11/26 09:31:23;;;;;;;12.45;2.60;;;;;;;;;;5012466;28;20050;-71
2022/11/26 09:33:49;;;;;;;16.73;2.88;;;;;;;;;;5013501;28;20528;-73
2022/11/26 09:36:17;;;;;;;17.95;3.10;;;;;;;;;;5013673;28;20405;-71
2022/11/26 09:38:43;;;;;;;16.80;3.45;;;;;;;;;;5013226;28;20058;-71
2022/11/26 09:41:25;;;;;;;21.77;3.03;;;;;;;;;;5013400;28;20056;-74
2022/11/26 09:44:08;;;;;;;18.23;3.28;;;;;;;;;;5013188;28;20132;-73
2022/11/26 09:46:39;;;;;;;16.80;3.08;;;;;;;;;;5012563;28;20500;-72
2022/11/26 09:49:24;;;;;;;18.88;3.10;;;;;;;;;;5013200;28;20054;-73
2022/11/26 09:51:50;;;;;;;;;;;;;;;;;;5012268;28;20053;-72
2022/11/26 09:54:19;;;;;;;17.83;3.75;;;;;;;;;;5013004;28;20323;-73
2022/11/26 09:56:47;;;;;;;18.30;2.88;;;;;;;;;;5011892;28;20129;-72
2022/11/26 09:59:16;;;;;;;14.65;2.45;;;;;;;;;;5020541;28;20045;-72
2022/11/26 10:01:43;;;;;;;18.05;3.05;;;;;;;;;;5033385;28;20447;-71
2022/11/26 10:04:18;;;;;;;15.02;3.05;;;;;;;;;;5030924;28;20142;-63
2022/11/26 10:06:44;;;;;;;14.25;3.42;;;;;;;;;;5031664;28;20067;-71
2022/11/26 10:09:17;;;;;;;19.10;2.80;;;;;;;;;;5006121;28;20054;-73
2022/11/26 10:11:51;;;;;;;14.02;2.53;;;;;;;;;;5019544;28;20045;-76
2022/11/26 10:14:44;;;;;;;14.55;2.60;;;;;;;;;;5031891;28;20053;-71
2022/11/26 10:17:14;;;;;;;15.48;2.15;;;;;;;;;;5025473;28;20056;-68
2022/11/26 10:20:03;;;;;;;18.33;4.07;;;;;;;;;;5033102;28;20425;-74
2022/11/26 10:22:39;;;;;;;18.27;3.78;;;;;;;;;;5028917;28;20489;-71
2022/11/26 10:25:13;;;;;;;13.60;2.70;;;;;;;;;;5033400;28;20049;-70
2022/11/26 10:27:41;;;;;;;15.45;2.58;;;;;;;;;;5033268;28;20056;-75
2022/11/26 10:30:07;;;;;;;;;;;;;;;;;;5033533;28;20049;-74
2022/11/26 10:32:36;;;;;;;13.98;2.97;;;;;;;;;;5033333;28;19921;-73
2022/11/26 10:35:03;;;;;;;16.92;2.47;;;;;;;;;;5033169;28;20527;-74
2022/11/26 10:37:29;;;;;;;20.38;2.67;;;;;;;;;;5014609;28;20049;-70
2022/11/26 10:40:05;;;;;;;15.15;3.10;;;;;;;;;;5029081;28;20058;-73
2022/11/26 10:42:41;;;;;;;15.40;2.67;;;;;;;;;;5027602;28;20096;-68
2022/11/26 10:45:23;;;;;;;16.38;2.65;;;;;;;;;;5024031;28;20076;-70
2022/11/26 10:47:49;;;;;;;14.68;2.92;;;;;;;;;;5013745;28;20528;-70
2022/11/26 10:50:23;;;;;;;14.95;2.42;;;;;;;;;;5028559;28;20051;-69
2022/11/26 10:53:18;;;;;;;14.65;3.08;;;;;;;;;;5031307;28;20058;-69
2022/11/26 10:55:44;;;;;;;15.25;2.97;;;;;;;;;;5031949;28;20041;-71
2022/11/26 10:58:15;;;;;;;15.65;2.45;;;;;;;;;;5031355;28;20057;-70
2022/11/26 11:00:44;;;;;;;13.35;2.30;;;;;;;;;;5031409;28;20536;-68
2022/11/26 11:03:16;;;;;;;14.20;2.30;;;;;;;;;;5031899;28;20497;-71
2022/11/26 11:05:43;;;;;;;13.15;2.78;;;;;;;;;;5023929;28;20042;-69
2022/11/26 11:08:13;;;;;;;14.75;2.55;;;;;;;;;;5012675;28;20054;-68
2022/11/26 11:10:54;;;;;;;11.15;2.22;;;;;;;;;;5011261;28;20057;-69
2022/11/26 11:13:22;;;;;;;13.15;2.88;;;;;;;;;;5021108;28;20045;-70
2022/11/26 11:15:59;;;;;;;14.30;3.55;;;;;;;;;;5032185;28;20137;-70
2022/11/26 11:18:25;;;;;;;17.67;4.38;;;;;;;;;;5032432;28;20410;-70
2022/11/26 11:21:01;;;;;;;15.50;3.43;;;;;;;;;;5032262;28;20048;-70
2022/11/26 11:23:30;;;;;;;11.95;2.70;;;;;;;;;;5032292;28;20285;-70
2022/11/26 11:26:19;;;;;;;14.10;2.25;;;;;;;;;;5032392;28;20064;-70
2022/11/26 11:28:50;;;;;;;14.13;2.95;;;;;;;;;;5030365;28;20053;-67
2022/11/26 11:31:18;;;;;;;12.82;2.45;;;;;;;;;;5012225;28;20050;-68
2022/11/26 11:33:45;;;;;;;14.77;2.60;;;;;;;;;;5011901;28;20128;-69
2022/11/26 11:36:14;;;;;;;16.45;3.20;;;;;;;;;;5011910;28;20493;-70
2022/11/26 11:38:53;;;;;;;16.80;2.65;;;;;;;;;;5021931;28;20128;-70
2022/11/26 11:41:41;;;;;;;20.15;6.50;;;;;;;;;;5030797;28;20045;-70
2022/11/26 11:44:09;;;;;;;13.68;3.67;;;;;;;;;;5030516;28;20049;-70
2022/11/26 11:46:36;;;;;;;;;;;;;;;;;;5032590;28;20037;-69
2022/11/26 11:49:10;;;;;;;14.25;2.97;;;;;;;;;;5032078;28;19925;-70
2022/11/26 11:51:36;;;;;;;18.20;3.05;;;;;;;;;;5030413;28;20064;-70
2022/11/26 11:54:09;;;;;;;33.58;21.35;;;;;;;;;;5031966;28;20124;-69
2022/11/26 11:56:59;;;;;;;32.47;20.42;;;;;;;;;;5031364;28;20128;-70
2022/11/26 11:59:34;;;;;;;19.70;9.52;;;;;;;;;;5020603;28;20477;-70
2022/11/26 12:02:19;;;;;;;20.65;6.97;;;;;;;;;;5031705;28;20050;-70
2022/11/26 12:05:05;;;;;;;16.25;2.92;;;;;;;;;;5031542;28;20574;-68
2022/11/26 12:07:46;;;;;;;14.73;2.35;;;;;;;;;;5019955;28;20101;-66
2022/11/26 12:10:19;;;;;;;22.90;7.82;;;;;;;;;;4991755;28;20124;-69
2022/11/26 12:12:51;;;;;;;11.73;2.65;;;;;;;;;;4992271;28;20508;-65
2022/11/26 12:15:17;;;;;;;46.20;26.65;;;;;;;;;;4992389;28;20137;-64
2022/11/26 12:17:50;;;;;;;13.23;2.72;;;;;;;;;;4992410;28;20050;-62
2022/11/26 12:20:26;;;;;;;85.32;63.53;;;;;;;;;;4992225;28;20050;-73
2022/11/26 12:23:05;;;;;;;57.05;38.63;;;;;;;;;;4992180;28;20046;-66
2022/11/26 12:25:38;;;;;;;16.88;4.65;;;;;;;;;;4992664;28;20058;-69
2022/11/26 12:28:13;;;;;;;14.13;3.28;;;;;;;;;;4992308;28;20050;-64
2022/11/26 12:30:50;;;;;;;12.55;3.78;;;;;;;;;;4992185;28;20479;-69
2022/11/26 12:33:17;;;;;;;;;;;;;;;;;;5001801;28;20054;-72
2022/11/26 12:35:52;;;;;;;71.15;13.68;;;;;;;;;;5011403;28;19926;-73
2022/11/26 18:42:29;;;;;;;7.00;2.22;;;;;;;;;;5068248;28;20433;-68
2022/11/26 18:45:04;;;;;;;10.95;2.88;;;;;;;;;;5055872;28;20045;-73
2022/11/26 18:47:30;;;;;;;9.80;2.55;;;;;;;;;;5045324;28;20049;-63
2022/11/26 18:49:56;;;;;;;9.95;2.72;;;;;;;;;;5045815;28;20041;-63
2022/11/26 18:52:23;;;;;;;9.60;2.17;;;;;;;;;;5046797;28;20084;-63
2022/11/26 18:54:49;;;;;;;8.00;2.33;;;;;;;;;;5048342;28;20045;-63
2022/11/26 18:57:16;;;;;;;8.18;2.50;;;;;;;;;;5047285;28;20089;-63
2022/11/26 18:59:42;;;;;;;11.38;2.30;;;;;;;;;;5048846;28;20053;-63
2022/11/26 19:02:09;;;;;;;7.45;2.22;;;;;;;;;;5048534;28;20052;-64
2022/11/26 19:04:37;;;;;;;10.27;2.40;;;;;;;;;;5048689;28;20045;-64
2022/11/26 19:07:03;;;;;;;6.80;2.75;;;;;;;;;;5048929;28;20041;-64
2022/11/26 19:09:29;;;;;;;12.80;3.00;;;;;;;;;;5037804;28;20417;-63
2022/11/26 19:11:57;;;;;;;6.32;1.75;;;;;;;;;;5045311;28;20059;-64
2022/11/26 19:14:23;;;;;;;8.55;2.65;;;;;;;;;;5048730;28;20132;-63
2022/11/26 19:16:50;;;;;;;8.40;2.22;;;;;;;;;;5048314;28;20073;-64
2022/11/26 19:19:16;;;;;;;7.70;1.92;;;;;;;;;;5029515;28;20090;-65
2022/11/26 19:21:43;;;;;;;4.75;1.30;;;;;;;;;;5048502;28;20051;-65
2022/11/26 19:24:10;;;;;;;5.80;1.50;;;;;;;;;;5048278;28;20135;-65
2022/11/26 19:26:37;;;;;;;4.03;1.17;;;;;;;;;;5048148;28;20052;-64
2022/11/26 19:29:04;;;;;;;3.00;1.30;;;;;;;;;;5048169;28;20053;-65
2022/11/26 19:31:34;;;;;;;3.03;1.20;;;;;;;;;;5033958;28;20049;-64
2022/11/26 19:34:04;;;;;;;4.15;1.23;;;;;;;;;;5046487;28;20049;-65
2022/11/26 19:36:31;;;;;;;4.00;1.00;;;;;;;;;;5043899;28;20132;-64
2022/11/26 19:38:58;;;;;;;3.78;1.10;;;;;;;;;;5042474;28;20512;-64
2022/11/26 19:41:25;;;;;;;3.42;1.00;;;;;;;;;;5035776;28;20490;-65
2022/11/26 19:43:52;;;;;;;5.32;1.13;;;;;;;;;;5046157;28;20049;-64
2022/11/26 19:46:19;;;;;;;5.65;0.93;;;;;;;;;;5047470;28;20053;-65
2022/11/26 19:48:46;;;;;;;4.32;1.05;;;;;;;;;;5048025;28;20051;-64
2022/11/26 19:51:13;;;;;;;6.60;1.42;;;;;;;;;;5047721;28;20052;-65
2022/11/26 19:53:40;;;;;;;4.00;1.10;;;;;;;;;;5035450;28;20049;-64
2022/11/26 19:56:07;;;;;;;5.70;1.73;;;;;;;;;;5028947;28;20129;-64
2022/11/26 19:58:34;;;;;;;3.00;1.02;;;;;;;;;;5014519;28;20497;-64
2022/11/26 20:01:04;;;;;;;5.75;0.98;;;;;;;;;;5033874;28;20046;-65
2022/11/26 20:03:31;;;;;;;3.88;1.23;;;;;;;;;;5017989;28;20045;-64
2022/11/26 20:06:03;;;;;;;4.88;1.00;;;;;;;;;;5023107;28;20562;-65
2022/11/26 20:08:30;;;;;;;4.60;1.35;;;;;;;;;;5034083;28;20045;-64
2022/11/26 20:11:01;;;;;;;5.47;1.17;;;;;;;;;;5026585;28;20049;-66
2022/11/26 20:13:27;;;;;;;3.08;1.30;;;;;;;;;;5028171;28;20069;-63
2022/11/26 20:15:53;;;;;;;2.85;1.02;;;;;;;;;;5034274;28;20060;-63
2022/11/26 20:18:20;;;;;;;5.05;1.40;;;;;;;;;;5025130;28;20128;-62
2022/11/26 20:20:59;;;;;;;4.13;1.20;;;;;;;;;;5017030;28;20066;-64
2022/11/26 20:23:26;;;;;;;3.30;1.15;;;;;;;;;;5030137;28;20076;-64
2022/11/26 20:25:53;;;;;;;4.40;0.93;;;;;;;;;;5033196;28;20056;-64
2022/11/26 20:28:19;;;;;;;4.15;1.08;;;;;;;;;;5033218;28;20084;-64
2022/11/26 20:30:46;;;;;;;4.05;0.88;;;;;;;;;;5033158;28;20409;-64
2022/11/26 20:33:14;;;;;;;2.97;0.85;;;;;;;;;;5031119;28;20124;-65
2022/11/26 20:35:41;;;;;;;4.28;0.90;;;;;;;;;;5020471;28;20401;-65
2022/11/26 20:38:08;;;;;;;3.63;1.07;;;;;;;;;;5031769;28;20412;-65
2022/11/26 20:40:34;;;;;;;3.25;1.00;;;;;;;;;;5016880;28;20302;-65
2022/11/26 20:43:00;;;;;;;2.88;1.05;;;;;;;;;;5029429;28;20041;-65
2022/11/26 20:45:27;;;;;;;3.58;1.13;;;;;;;;;;5032741;28;20049;-65
2022/11/26 20:47:54;;;;;;;2.45;0.90;;;;;;;;;;5032833;28;20050;-65
2022/11/26 20:50:21;;;;;;;2.40;1.30;;;;;;;;;;5032854;28;20490;-64